Time;durP1;ratioP1;P1;durP2;ratioP2;P2;SDS_P1;SDS_P2;PMS_P1;PMS_P2;Temp;Humidity;BMP_temperature;BMP_pressure;BME280_temperature;BME280_humidity;BME280_pressure;Samples;Min_cycle;Max_cycle;Signal;HPM_P1;HPM_P2
2024/01/03 00:01:29;;;;;;;22.38;3.72;;;12.40;99.90;;;;;;5047110;28;20032;-81
2024/01/03 00:03:55;;;;;;;27.13;4.15;;;;;;;;;;5047084;28;20063;-81
2024/01/03 00:06:21;;;;;;;22.55;4.32;;;;;;;;;;5048742;28;20025;-81
2024/01/03 00:08:48;;;;;;;25.42;4.70;;;;;;;;;;5047881;28;20079;-81
2024/01/03 00:11:30;;;;;;;19.27;3.58;;;12.50;99.90;;;;;;5031266;28;20485;-81
2024/01/03 00:14:06;;;;;;;19.60;3.88;;;12.50;99.90;;;;;;5048064;28;20511;-81
2024/01/03 00:16:38;;;;;;;21.90;3.97;;;12.50;99.90;;;;;;5048547;28;20017;-81
2024/01/03 00:19:05;;;;;;;18.95;3.03;;;;;;;;;;5048095;28;20041;-81
2024/01/03 00:21:33;;;;;;;22.52;3.90;;;12.50;99.90;;;;;;5048370;28;20033;-82
2024/01/03 00:24:11;;;;;;;19.17;4.22;;;12.50;99.90;;;;;;5047946;28;20551;-82
2024/01/03 00:26:40;;;;;;;21.77;3.38;;;12.70;99.90;;;;;;5048186;28;20028;-81
2024/01/03 00:29:17;;;;;;;22.33;3.70;;;12.50;99.90;;;;;;5048310;28;20500;-82
2024/01/03 00:31:44;;;;;;;23.55;4.03;;;;;;;;;;5048140;28;20028;-81
2024/01/03 00:34:13;;;;;;;22.25;3.90;;;;;;;;;;5048033;28;20445;-81
2024/01/03 00:36:39;;;;;;;23.63;4.35;;;;;;;;;;5050852;28;20036;-81
2024/01/03 00:39:07;;;;;;;20.48;3.92;;;;;;;;;;5052096;28;20033;-82
2024/01/03 00:41:33;;;;;;;24.48;4.20;;;;;;;;;;5052162;28;20042;-82
2024/01/03 00:43:59;;;;;;;20.08;3.50;;;;;;;;;;5051872;28;20380;-82
2024/01/03 00:46:25;;;;;;;16.67;3.25;;;;;;;;;;5051831;28;20032;-82
2024/01/03 00:48:51;;;;;;;18.25;3.33;;;;;;;;;;5051744;28;20044;-82
2024/01/03 00:51:17;;;;;;;23.58;4.57;;;;;;;;;;5052440;28;20401;-82
2024/01/03 00:53:43;;;;;;;27.45;4.07;;;;;;;;;;5051902;28;20400;-82
2024/01/03 00:56:09;;;;;;;21.35;3.97;;;;;;;;;;5051963;28;20096;-81
2024/01/03 00:58:35;;;;;;;24.05;4.07;;;;;;;;;;5051496;28;20029;-82
2024/01/03 01:01:01;;;;;;;30.55;4.35;;;;;;;;;;5051598;28;20025;-82
2024/01/03 01:03:27;;;;;;;23.33;3.50;;;;;;;;;;5051797;28;20025;-82
2024/01/03 01:05:53;;;;;;;17.45;3.80;;;;;;;;;;5051731;28;20066;-82
2024/01/03 01:08:19;;;;;;;21.35;4.82;;;;;;;;;;5052125;28;20052;-82
2024/01/03 01:10:45;;;;;;;23.85;4.03;;;;;;;;;;5051834;28;20029;-82
2024/01/03 01:13:11;;;;;;;23.13;4.78;;;;;;;;;;5051480;28;20033;-81
2024/01/03 01:15:37;;;;;;;26.83;4.63;;;;;;;;;;5051369;28;20059;-82
2024/01/03 01:18:03;;;;;;;26.33;4.20;;;;;;;;;;5050910;28;20397;-82
2024/01/03 01:20:29;;;;;;;30.08;5.18;;;;;;;;;;5051474;28;20032;-82
2024/01/03 01:22:55;;;;;;;25.58;3.25;;;;;;;;;;5050857;28;20033;-81
2024/01/03 01:25:21;;;;;;;17.40;3.47;;;;;;;;;;5051980;28;20025;-81
2024/01/03 01:27:47;;;;;;;20.60;3.72;;;;;;;;;;5052082;28;20021;-82
2024/01/03 01:30:13;;;;;;;27.77;3.67;;;;;;;;;;5050984;28;20027;-82
2024/01/03 01:32:39;;;;;;;24.35;3.75;;;;;;;;;;5050906;28;20052;-82
2024/01/03 01:35:05;;;;;;;25.77;3.70;;;;;;;;;;5050733;28;20025;-81
2024/01/03 01:37:31;;;;;;;20.85;3.72;;;;;;;;;;5051194;28;20468;-81
2024/01/03 01:39:57;;;;;;;20.30;3.22;;;;;;;;;;5050543;28;20473;-81
2024/01/03 01:42:25;;;;;;;19.80;3.38;;;;;;;;;;5051032;28;20051;-82
2024/01/03 01:44:51;;;;;;;25.00;3.63;;;;;;;;;;5051773;28;20056;-81
2024/01/03 01:47:18;;;;;;;21.33;3.63;;;;;;;;;;5032038;28;20055;-82
2024/01/03 01:49:44;;;;;;;17.58;3.05;;;;;;;;;;5050831;28;20373;-82
2024/01/03 01:52:10;;;;;;;20.02;3.83;;;;;;;;;;5050363;28;20568;-82
2024/01/03 01:54:37;;;;;;;26.33;4.20;;;;;;;;;;5050761;28;20083;-82
2024/01/03 01:57:03;;;;;;;15.18;3.28;;;;;;;;;;5050636;28;20028;-82
2024/01/03 01:59:30;;;;;;;18.13;3.00;;;;;;;;;;5049985;28;20051;-82
2024/01/03 02:01:56;;;;;;;20.90;3.58;;;;;;;;;;5050098;28;20021;-81
2024/01/03 02:04:23;;;;;;;17.42;4.20;;;;;;;;;;5051448;28;20400;-81
2024/01/03 02:06:49;;;;;;;22.98;3.63;;;;;;;;;;5051422;28;20021;-81
2024/01/03 02:09:15;;;;;;;24.38;3.97;;;;;;;;;;5050144;28;20384;-82
2024/01/03 02:11:45;;;;;;;18.42;2.92;;;12.10;99.90;;;;;;5050229;28;20511;-81
2024/01/03 02:14:11;;;;;;;17.63;3.20;;;;;;;;;;5050329;28;20028;-81
2024/01/03 02:16:37;;;;;;;17.08;3.58;;;;;;;;;;5031883;28;20025;-81
2024/01/03 02:19:04;;;;;;;23.70;3.78;;;;;;;;;;5032466;28;20544;-81
2024/01/03 02:21:30;;;;;;;20.88;3.22;;;;;;;;;;5050077;28;20535;-82
2024/01/03 02:23:56;;;;;;;17.70;3.10;;;;;;;;;;5032260;28;20075;-82
2024/01/03 02:26:22;;;;;;;18.00;2.95;;;;;;;;;;5050241;28;20028;-82
2024/01/03 02:28:48;;;;;;;22.77;4.53;;;;;;;;;;5050094;28;20036;-81
2024/01/03 02:31:14;;;;;;;22.90;4.45;;;;;;;;;;5050121;28;20340;-81
2024/01/03 02:33:40;;;;;;;26.23;4.32;;;;;;;;;;5049755;28;20080;-82
2024/01/03 02:36:06;;;;;;;25.75;4.13;;;12.00;99.90;;;;;;5050123;28;20443;-81
2024/01/03 02:38:32;;;;;;;24.00;3.88;;;;;;;;;;5049667;28;20039;-81
2024/01/03 02:40:58;;;;;;;22.52;3.35;;;;;;;;;;5049758;28;20021;-81
2024/01/03 02:43:24;;;;;;;24.85;3.72;;;;;;;;;;5032356;28;20542;-81
2024/01/03 02:45:51;;;;;;;26.58;4.28;;;;;;;;;;5032815;28;20445;-81
2024/01/03 02:48:17;;;;;;;26.15;4.80;;;;;;;;;;5030904;28;20520;-81
2024/01/03 02:50:47;;;;;;;27.20;3.95;;;;;;;;;;5049456;28;20071;-82
2024/01/03 02:53:13;;;;;;;23.02;3.55;;;;;;;;;;5031393;28;20064;-82
2024/01/03 02:55:39;;;;;;;17.98;3.70;;;;;;;;;;5049384;28;20056;-82
2024/01/03 02:58:05;;;;;;;28.80;3.78;;;;;;;;;;5049299;28;20029;-82
2024/01/03 03:00:31;;;;;;;19.77;4.13;;;;;;;;;;5030560;28;20021;-82
2024/01/03 03:02:57;;;;;;;18.48;3.90;;;;;;;;;;5049546;28;20056;-82
2024/01/03 03:05:23;;;;;;;17.83;3.17;;;;;;;;;;5056704;28;20504;-82
2024/01/03 03:07:49;;;;;;;22.35;4.55;;;;;;;;;;5058496;28;20150;-81
2024/01/03 03:10:15;;;;;;;17.70;3.80;;;;;;;;;;5048839;28;20036;-83
2024/01/03 03:12:41;;;;;;;21.38;3.85;;;;;;;;;;5048936;28;20048;-82
2024/01/03 03:15:08;;;;;;;23.23;4.22;;;;;;;;;;5044973;28;20052;-82
2024/01/03 03:17:34;;;;;;;24.85;3.55;;;;;;;;;;5047826;28;20037;-81
2024/01/03 03:20:00;;;;;;;28.10;4.70;;;;;;;;;;5047166;28;20029;-81
2024/01/03 03:22:26;;;;;;;21.30;4.45;;;;;;;;;;5031831;28;20044;-81
2024/01/03 03:24:52;;;;;;;24.70;4.30;;;;;;;;;;5049139;28;20083;-82
2024/01/03 03:27:18;;;;;;;25.30;4.20;;;;;;;;;;5049139;28;20061;-81
2024/01/03 03:29:43;;;;;;;28.27;3.90;;;;;;;;;;5049186;28;20021;-81
2024/01/03 03:32:10;;;;;;;19.35;3.95;;;;;;;;;;5048622;28;20033;-82
2024/01/03 03:34:36;;;;;;;29.02;4.65;;;;;;;;;;5048462;28;20025;-81
2024/01/03 03:37:02;;;;;;;30.60;4.40;;;;;;;;;;5056512;28;20033;-82
2024/01/03 03:39:28;;;;;;;22.27;3.72;;;;;;;;;;5049039;28;20079;-82
2024/01/03 03:41:54;;;;;;;23.70;4.35;;;;;;;;;;5049404;28;20053;-82
2024/01/03 03:44:20;;;;;;;27.90;4.03;;;;;;;;;;5048988;28;20455;-81
2024/01/03 03:46:46;;;;;;;18.58;3.25;;;;;;;;;;5048970;28;20021;-81
2024/01/03 03:49:12;;;;;;;21.23;4.38;;;;;;;;;;5048433;28;20036;-82
2024/01/03 03:51:38;;;;;;;28.25;4.22;;;;;;;;;;5051954;28;20417;-82
2024/01/03 03:54:04;;;;;;;31.23;4.18;;;;;;;;;;5049044;28;20029;-82
2024/01/03 03:56:30;;;;;;;22.27;3.72;;;;;;;;;;5048470;28;20037;-82
2024/01/03 03:58:56;;;;;;;26.35;4.18;;;;;;;;;;5048750;28;20079;-82
2024/01/03 04:01:22;;;;;;;30.88;3.95;;;11.30;99.90;;;;;;5048396;28;20488;-82
2024/01/03 04:03:48;;;;;;;29.35;4.80;;;;;;;;;;5048223;28;20051;-82
2024/01/03 04:06:15;;;;;;;20.92;4.07;;;;;;;;;;5048332;28;20480;-82
2024/01/03 04:08:45;;;;;;;26.65;4.50;;;11.30;99.90;;;;;;5048071;28;20107;-82
2024/01/03 04:11:12;;;;;;;21.02;3.92;;;;;;;;;;5050150;28;20037;-82
2024/01/03 04:13:38;;;;;;;27.23;4.40;;;;;;;;;;5041510;28;20586;-82
2024/01/03 04:16:07;;;;;;;28.83;4.85;;;11.40;99.90;;;;;;5051073;28;20389;-82
2024/01/03 04:18:34;;;;;;;16.58;3.20;;;;;;;;;;5051849;28;20112;-83
2024/01/03 04:21:00;;;;;;;31.98;4.80;;;;;;;;;;5034328;28;20036;-82
2024/01/03 04:23:26;;;;;;;27.85;4.35;;;;;;;;;;5052274;28;20499;-82
2024/01/03 04:25:52;;;;;;;32.47;4.97;;;;;;;;;;5048998;28;20025;-83
2024/01/03 04:28:18;;;;;;;26.27;4.10;;;;;;;;;;5051933;28;20025;-82
2024/01/03 04:30:44;;;;;;;22.33;4.07;;;;;;;;;;5051678;28;20025;-82
2024/01/03 04:33:10;;;;;;;27.95;4.55;;;;;;;;;;5033200;28;20047;-82
2024/01/03 04:35:36;;;;;;;22.48;3.95;;;;;;;;;;5051486;28;20029;-81
2024/01/03 04:38:03;;;;;;;16.85;3.50;;;;;;;;;;5051859;28;20094;-84
2024/01/03 04:40:32;;;;;;;19.65;3.30;;;11.30;99.90;;;;;;5034995;28;20025;-83
2024/01/03 04:42:58;;;;;;;22.00;3.75;;;;;;;;;;5052923;28;20031;-82
2024/01/03 04:45:24;;;;;;;19.25;3.53;;;;;;;;;;5033663;28;20021;-82
2024/01/03 04:47:50;;;;;;;20.80;3.22;;;;;;;;;;5051668;28;20083;-82
2024/01/03 04:50:17;;;;;;;27.15;3.55;;;;;;;;;;5051576;28;20092;-83
2024/01/03 04:52:43;;;;;;;18.98;3.42;;;;;;;;;;5051474;28;20032;-82
2024/01/03 04:55:09;;;;;;;17.63;3.10;;;;;;;;;;5051735;28;20025;-82
2024/01/03 04:57:35;;;;;;;24.35;4.20;;;;;;;;;;5051233;28;20055;-82
2024/01/03 05:00:04;;;;;;;21.27;3.78;;;;;;;;;;5052328;28;20036;-82
2024/01/03 05:02:30;;;;;;;15.70;3.60;;;;;;;;;;5052565;28;20024;-82
2024/01/03 05:04:56;;;;;;;21.60;4.72;;;;;;;;;;5033584;28;20492;-83
2024/01/03 05:07:22;;;;;;;25.95;4.35;;;;;;;;;;5051251;28;20122;-82
2024/01/03 05:09:48;;;;;;;18.85;4.35;;;;;;;;;;5051322;28;20025;-82
2024/01/03 05:12:14;;;;;;;20.88;3.40;;;;;;;;;;5050630;28;20061;-82
2024/01/03 05:14:40;;;;;;;20.55;4.13;;;;;;;;;;5050724;28;20048;-82
2024/01/03 05:17:06;;;;;;;20.63;4.20;;;;;;;;;;5050827;28;20036;-83
2024/01/03 05:19:32;;;;;;;24.50;3.75;;;;;;;;;;5052350;28;20056;-83
2024/01/03 05:21:58;;;;;;;26.73;4.63;;;;;;;;;;5050187;28;20029;-87
2024/01/03 05:24:24;;;;;;;24.23;4.25;;;;;;;;;;5049699;28;20239;-87
2024/01/03 05:26:50;;;;;;;23.65;4.03;;;;;;;;;;5038464;28;20037;-86
2024/01/03 05:29:16;;;;;;;20.80;3.53;;;;;;;;;;5050858;28;20493;-85
2024/01/03 05:31:42;;;;;;;24.17;4.30;;;;;;;;;;5058412;28;20032;-85
2024/01/03 05:34:09;;;;;;;24.27;4.82;;;;;;;;;;5050357;28;20029;-86
2024/01/03 05:36:35;;;;;;;32.15;4.32;;;;;;;;;;5053616;28;20025;-85
2024/01/03 05:39:01;;;;;;;22.38;4.25;;;;;;;;;;5051476;28;20043;-85
2024/01/03 05:41:27;;;;;;;30.33;5.07;;;;;;;;;;5050636;28;20025;-85
2024/01/03 05:43:53;;;;;;;30.10;5.07;;;;;;;;;;5050721;28;20021;-87
2024/01/03 05:46:19;;;;;;;24.20;4.70;;;;;;;;;;5050102;28;20032;-88
2024/01/03 05:48:45;;;;;;;21.23;4.20;;;;;;;;;;5050833;28;20029;-86
2024/01/03 05:51:11;;;;;;;25.33;4.47;;;;;;;;;;5050562;28;20035;-86
2024/01/03 05:53:37;;;;;;;25.38;4.78;;;;;;;;;;5050721;28;20392;-87
2024/01/03 05:56:04;;;;;;;26.80;4.18;;;;;;;;;;5051260;28;20021;-86
2024/01/03 05:58:30;;;;;;;24.00;4.30;;;;;;;;;;5068494;28;20043;-85
2024/01/03 06:00:56;;;;;;;29.30;4.65;;;;;;;;;;5070654;28;20021;-85
2024/01/03 06:03:22;;;;;;;18.75;4.03;;;;;;;;;;5070550;28;20024;-85
2024/01/03 06:05:48;;;;;;;30.67;5.55;;;;;;;;;;5070382;28;20029;-84
2024/01/03 06:08:14;;;;;;;23.35;3.90;;;;;;;;;;5070127;28;20029;-86
2024/01/03 06:10:40;;;;;;;25.50;4.03;;;;;;;;;;5070426;28;20503;-84
2024/01/03 06:13:06;;;;;;;24.13;3.83;;;;;;;;;;5071083;28;20115;-86
2024/01/03 06:15:33;;;;;;;26.02;4.43;;;;;;;;;;5053010;28;20426;-85
2024/01/03 06:17:59;;;;;;;28.10;4.43;;;;;;;;;;5069982;28;20024;-85
2024/01/03 06:20:25;;;;;;;24.05;4.50;;;;;;;;;;5052233;28;20649;-86
2024/01/03 06:22:51;;;;;;;25.73;4.95;;;;;;;;;;5070131;28;20039;-86
2024/01/03 06:25:17;;;;;;;25.40;4.00;;;;;;;;;;5070256;28;20480;-84
2024/01/03 06:27:43;;;;;;;24.58;4.55;;;;;;;;;;5070119;28;20032;-85
2024/01/03 06:30:09;;;;;;;24.58;3.70;;;;;;;;;;5070060;28;20063;-85
2024/01/03 06:32:35;;;;;;;23.40;4.10;;;;;;;;;;5032123;28;20033;-85
2024/01/03 06:35:01;;;;;;;20.50;4.05;;;;;;;;;;5047390;28;20029;-85
2024/01/03 06:37:27;;;;;;;18.33;3.20;;;;;;;;;;5032924;28;20041;-84
2024/01/03 06:39:53;;;;;;;15.35;3.50;;;;;;;;;;5050383;28;20547;-84
2024/01/03 06:42:19;;;;;;;18.15;3.20;;;;;;;;;;5059853;28;20052;-86
2024/01/03 06:44:45;;;;;;;21.40;3.47;;;;;;;;;;5055068;28;20067;-85
2024/01/03 06:47:11;;;;;;;19.33;3.45;;;;;;;;;;5057834;28;20036;-85
2024/01/03 06:49:37;;;;;;;17.77;3.65;;;;;;;;;;5054803;28;20017;-87
2024/01/03 06:52:03;;;;;;;27.75;4.90;;;;;;;;;;5059302;28;20032;-86
2024/01/03 06:54:29;;;;;;;23.88;4.82;;;;;;;;;;5053014;28;20063;-86
2024/01/03 06:56:55;;;;;;;23.17;4.78;;;;;;;;;;5057844;28;20052;-85
2024/01/03 06:59:21;;;;;;;16.35;3.20;;;;;;;;;;5053114;28;20456;-85
2024/01/03 07:01:47;;;;;;;30.92;4.97;;;;;;;;;;5039009;28;20028;-86
2024/01/03 07:04:13;;;;;;;27.40;4.20;;;;;;;;;;5035154;28;20112;-87
2024/01/03 07:06:39;;;;;;;26.25;4.05;;;;;;;;;;5056673;28;20546;-86
2024/01/03 07:09:05;;;;;;;27.70;4.60;;;;;;;;;;5035841;28;20028;-87
2024/01/03 07:11:31;;;;;;;20.90;3.88;;;;;;;;;;5055606;28;20027;-86
2024/01/03 07:13:59;;;;;;;25.10;4.25;;;;;;;;;;5053158;28;20051;-87
2024/01/03 07:16:25;;;;;;;30.48;4.70;;;;;;;;;;5054593;28;20021;-86
2024/01/03 07:18:51;;;;;;;23.25;4.78;;;;;;;;;;5058952;28;20025;-86
2024/01/03 07:21:17;;;;;;;22.20;3.90;;;;;;;;;;5055485;28;20020;-86
2024/01/03 07:23:43;;;;;;;25.73;4.18;;;;;;;;;;5053658;28;20037;-86
2024/01/03 07:26:09;;;;;;;27.63;5.53;;;;;;;;;;5051852;28;20021;-85
2024/01/03 07:28:35;;;;;;;25.23;4.75;;;;;;;;;;5052302;28;20118;-85
2024/01/03 07:31:01;;;;;;;18.33;3.38;;;;;;;;;;5050956;28;20036;-86
2024/01/03 07:33:27;;;;;;;22.23;4.38;;;;;;;;;;5054639;28;20033;-86
2024/01/03 07:35:54;;;;;;;23.23;5.18;;;;;;;;;;5050659;28;20404;-86
2024/01/03 07:38:20;;;;;;;25.35;3.90;;;;;;;;;;5054120;28;20024;-86
2024/01/03 07:40:46;;;;;;;31.17;4.55;;;;;;;;;;5032679;28;20040;-86
2024/01/03 07:43:12;;;;;;;30.52;5.20;;;;;;;;;;5053269;28;20518;-86
2024/01/03 07:45:38;;;;;;;27.50;4.25;;;;;;;;;;5032802;28;20041;-86
2024/01/03 07:48:04;;;;;;;27.90;4.28;;;;;;;;;;5052691;28;20492;-87
2024/01/03 07:50:31;;;;;;;30.42;4.22;;;;;;;;;;5050385;28;20323;-86
2024/01/03 07:52:57;;;;;;;19.70;3.85;;;;;;;;;;5052251;28;20063;-86
2024/01/03 07:55:23;;;;;;;31.45;4.55;;;;;;;;;;5050016;28;20139;-87
2024/01/03 07:57:49;;;;;;;21.92;3.90;;;;;;;;;;5034145;28;20033;-87
2024/01/03 08:00:15;;;;;;;22.48;4.30;;;;;;;;;;5050799;28;20032;-86
2024/01/03 08:02:42;;;;;;;22.88;3.75;;;;;;;;;;5051294;28;20033;-87
2024/01/03 08:05:09;;;;;;;27.67;4.07;;;;;;;;;;5048341;28;20074;-87
2024/01/03 08:07:35;;;;;;;27.95;4.63;;;;;;;;;;5049396;28;20091;-86
2024/01/03 08:10:01;;;;;;;21.23;4.38;;;;;;;;;;5030855;28;20476;-87
2024/01/03 08:12:27;;;;;;;24.67;5.15;;;;;;;;;;5048566;28;20052;-88
2024/01/03 08:14:53;;;;;;;20.10;3.65;;;;;;;;;;5030800;28;20029;-86
2024/01/03 08:17:19;;;;;;;25.73;4.00;;;;;;;;;;5048659;28;20463;-88
2024/01/03 08:19:45;;;;;;;29.25;4.05;;;;;;;;;;5030871;28;20025;-87
2024/01/03 08:22:11;;;;;;;24.38;4.30;;;;;;;;;;5030632;28;20033;-87
2024/01/03 08:24:37;;;;;;;21.00;4.55;;;;;;;;;;5031572;28;20028;-87
2024/01/03 08:27:04;;;;;;;18.92;3.58;;;;;;;;;;5048565;28;20104;-88
2024/01/03 08:29:30;;;;;;;25.92;4.35;;;;;;;;;;5048360;28;20025;-85
2024/01/03 08:31:56;;;;;;;19.67;4.30;;;;;;;;;;5030630;28;20127;-86
2024/01/03 08:34:22;;;;;;;21.65;3.92;;;;;;;;;;5048464;28;20095;-85
2024/01/03 08:36:48;;;;;;;24.25;5.32;;;;;;;;;;5048487;28;20040;-85
2024/01/03 08:39:15;;;;;;;28.33;4.43;;;;;;;;;;5030573;28;20431;-85
2024/01/03 08:41:41;;;;;;;27.17;4.40;;;;;;;;;;5049274;28;20090;-86
2024/01/03 08:44:07;;;;;;;22.15;4.20;;;;;;;;;;5049229;28;20408;-85
2024/01/03 08:46:39;;;;;;;22.75;4.63;;;;;;;;;;5048337;28;20488;-85
2024/01/03 08:49:05;;;;;;;29.95;4.68;;;;;;;;;;5048473;28;20033;-85
2024/01/03 08:51:31;;;;;;;21.95;3.83;;;;;;;;;;5048394;28;20393;-85
2024/01/03 08:53:57;;;;;;;21.63;3.85;;;;;;;;;;5048291;28;20129;-85
2024/01/03 08:56:24;;;;;;;25.20;4.78;;;;;;;;;;5048666;28;20075;-85
2024/01/03 08:58:50;;;;;;;23.25;3.97;;;;;;;;;;5034058;28;20029;-85
2024/01/03 09:01:17;;;;;;;26.00;4.93;;;;;;;;;;5051924;28;20024;-85
2024/01/03 09:03:43;;;;;;;24.58;4.35;;;;;;;;;;5034376;28;20036;-85
2024/01/03 09:06:09;;;;;;;24.15;4.13;;;;;;;;;;5052737;28;20021;-85
2024/01/03 09:08:35;;;;;;;27.45;5.13;;;;;;;;;;5051822;28;20060;-85
2024/01/03 09:11:07;;;;;;;25.25;4.82;;;;;;;;;;5051725;28;20082;-85
2024/01/03 09:13:37;;;;;;;28.17;4.45;;;;;;;;;;5051774;28;20794;-85
2024/01/03 09:16:03;;;;;;;31.70;5.68;;;;;;;;;;5033498;28;20340;-86
2024/01/03 09:18:29;;;;;;;27.23;4.22;;;;;;;;;;5051582;28;20072;-85
2024/01/03 09:20:57;;;;;;;27.95;5.35;;;;;;;;;;5051578;28;20102;-85
2024/01/03 09:23:23;;;;;;;19.90;3.47;;;;;;;;;;5051122;28;20162;-84
2024/01/03 09:25:49;;;;;;;23.70;4.75;;;;;;;;;;5051505;28;20062;-85
2024/01/03 09:28:15;;;;;;;18.58;4.18;;;;;;;;;;5051375;28;20025;-85
2024/01/03 09:30:41;;;;;;;27.75;4.22;;;;;;;;;;5052290;28;20028;-85
2024/01/03 09:33:07;;;;;;;31.50;4.38;;;;;;;;;;5033366;28;20443;-87
2024/01/03 09:35:33;;;;;;;24.75;4.22;;;;;;;;;;5050415;28;20100;-86
2024/01/03 09:37:59;;;;;;;25.48;4.57;;;;;;;;;;5050017;28;20392;-85
2024/01/03 09:40:25;;;;;;;31.23;5.20;;;;;;;;;;5050834;28;20026;-85
2024/01/03 09:42:52;;;;;;;22.27;3.92;;;;;;;;;;5048970;28;20032;-85
2024/01/03 09:45:18;;;;;;;27.73;4.65;;;;;;;;;;5049319;28;20022;-86
2024/01/03 09:47:44;;;;;;;27.05;5.57;;;;;;;;;;5051084;28;20036;-86
2024/01/03 09:50:10;;;;;;;24.45;4.45;;;;;;;;;;5050860;28;20021;-85
2024/01/03 09:52:38;;;;;;;23.58;4.20;;;;;;;;;;5050262;28;20029;-86
2024/01/03 09:55:04;;;;;;;24.10;4.00;;;;;;;;;;5050076;28;20032;-86
2024/01/03 09:57:30;;;;;;;15.35;3.05;;;;;;;;;;5050486;28;20029;-86
2024/01/03 09:59:58;;;;;;;20.25;4.10;;;;;;;;;;5032168;28;20025;-85
2024/01/03 10:02:27;;;;;;;19.93;3.73;;;;;;;;;;5050816;28;20040;-85
2024/01/03 10:04:54;;;;;;;15.13;3.00;;;;;;;;;;5050600;28;20274;-85
2024/01/03 10:07:31;;;;;;;19.23;3.50;;;;;;;;;;5050403;28;20512;-84
2024/01/03 10:09:57;;;;;;;13.10;3.60;;;;;;;;;;5050055;28;20099;-85
2024/01/03 10:12:23;;;;;;;20.42;4.65;;;;;;;;;;5050565;28;20116;-85
2024/01/03 10:14:49;;;;;;;19.13;4.35;;;;;;;;;;5050483;28;20056;-85
2024/01/03 10:17:16;;;;;;;14.95;3.30;;;;;;;;;;5051399;28;20029;-84
2024/01/03 10:19:42;;;;;;;16.85;3.20;;;;;;;;;;5051183;28;20028;-85
2024/01/03 10:22:08;;;;;;;16.23;3.53;;;;;;;;;;5032348;28;20116;-84
2024/01/03 10:24:40;;;;;;;17.63;2.88;;;;;;;;;;5050300;28;20124;-84
2024/01/03 10:27:10;;;;;;;10.00;2.10;;;;;;;;;;5050431;28;20485;-84
2024/01/03 10:29:39;;;;;;;13.55;2.60;;;;;;;;;;5050174;28;20029;-84
2024/01/03 10:32:09;;;;;;;10.90;2.42;;;;;;;;;;5050202;28;20033;-84
2024/01/03 10:34:36;;;;;;;12.18;2.70;;;;;;;;;;5050110;28;20036;-85
2024/01/03 10:37:02;;;;;;;11.05;2.10;;;;;;;;;;5050071;28;20032;-84
2024/01/03 10:39:29;;;;;;;9.55;2.08;;;;;;;;;;5050041;28;20501;-85
2024/01/03 10:41:56;;;;;;;13.32;3.50;;;;;;;;;;5050005;28;20024;-84
2024/01/03 10:44:22;;;;;;;18.08;5.75;;;;;;;;;;5049986;28;20511;-85
2024/01/03 10:46:49;;;;;;;17.95;4.53;;;;;;;;;;5049931;28;20021;-85
2024/01/03 10:49:18;;;;;;;14.50;6.03;;;;;;;;;;5050653;28;20473;-84
2024/01/03 10:51:45;;;;;;;12.63;4.28;;;;;;;;;;5032616;28;20401;-85
2024/01/03 10:54:11;;;;;;;14.57;3.40;;;;;;;;;;5049856;28;20064;-84
2024/01/03 10:56:37;;;;;;;9.20;2.33;;;;;;;;;;5049779;28;20521;-84
2024/01/03 10:59:04;;;;;;;9.43;2.40;;;;;;;;;;5049623;28;20032;-85
2024/01/03 11:01:38;;;;;;;8.38;2.50;;;;;;;;;;5049617;28;20021;-84
2024/01/03 11:04:22;;;;;;;11.93;2.55;;;;;;;;;;5049530;28;20020;-85
2024/01/03 11:06:49;;;;;;;11.98;2.65;;;;;;;;;;5050153;28;20021;-84
2024/01/03 11:09:15;;;;;;;12.90;2.58;;;;;;;;;;5032451;28;20025;-84
2024/01/03 11:11:41;;;;;;;12.68;2.50;;;;;;;;;;5049471;28;20033;-85
2024/01/03 11:14:19;;;;;;;8.25;2.35;;;;;;;;;;5049432;28;20033;-84
2024/01/03 11:16:46;;;;;;;15.07;2.83;;;;;;;;;;5050235;28;20388;-85
2024/01/03 11:19:12;;;;;;;10.40;2.50;;;;;;;;;;5031463;28;20031;-84
2024/01/03 11:21:39;;;;;;;15.38;2.70;;;;;;;;;;5048182;28;20029;-85
2024/01/03 11:24:25;;;;;;;16.83;2.97;;;;;;;;;;5048952;28;20033;-84
2024/01/03 11:26:56;;;;;;;15.30;2.97;;;;;;;;;;5048956;28;20017;-84
2024/01/03 11:29:39;;;;;;;13.65;2.50;;;;;;;;;;5049038;28;20032;-84
2024/01/03 11:32:06;;;;;;;16.52;3.28;;;;;;;;;;5045150;28;20079;-84
2024/01/03 11:34:45;;;;;;;9.77;2.15;;;;;;;;;;5048723;28;20036;-84
2024/01/03 11:37:17;;;;;;;15.75;2.97;;;;;;;;;;5048956;28;20491;-84
2024/01/03 11:39:45;;;;;;;15.05;3.05;;;;;;;;;;5048573;28;20025;-84
2024/01/03 11:42:18;;;;;;;11.18;2.95;;;;;;;;;;5047242;28;20033;-83
2024/01/03 11:44:44;;;;;;;16.33;3.53;;;;;;;;;;5046998;28;20051;-84
2024/01/03 11:47:13;;;;;;;14.10;2.92;;;;;;;;;;5047594;28;20505;-84
2024/01/03 11:49:40;;;;;;;20.02;3.25;;;;;;;;;;5047174;28;20021;-84
2024/01/03 11:52:06;;;;;;;11.35;2.78;;;;;;;;;;5045583;28;20029;-84
2024/01/03 11:54:32;;;;;;;12.02;2.72;;;;;;;;;;5027585;28;20030;-84
2024/01/03 11:56:58;;;;;;;12.48;2.90;;;;;;;;;;5027688;28;20036;-84
2024/01/03 11:59:25;;;;;;;12.57;2.40;;;;;;;;;;5028380;28;20022;-84
2024/01/03 12:02:00;;;;;;;8.15;2.03;;;;;;;;;;5034997;28;20029;-84
2024/01/03 12:04:26;;;;;;;12.38;1.95;;;;;;;;;;5046538;28;20017;-84
2024/01/03 12:06:59;;;;;;;8.38;2.15;;;;;;;;;;5047234;28;20028;-84
2024/01/03 12:09:29;;;;;;;5.30;1.40;;;;;;;;;;5047356;28;20032;-83
2024/01/03 12:11:55;;;;;;;9.63;1.58;;;;;;;;;;5046984;28;20028;-84
2024/01/03 12:14:21;;;;;;;8.88;1.90;;;;;;;;;;5047066;28;20032;-84
2024/01/03 12:16:47;;;;;;;11.80;2.10;;;;;;;;;;5030190;28;20028;-84
2024/01/03 12:19:32;;;;;;;9.13;1.90;;;;;;;;;;5047062;28;20053;-84
2024/01/03 12:21:59;;;;;;;10.02;2.45;;;;;;;;;;5048119;28;20033;-84
2024/01/03 12:24:38;;;;;;;8.82;2.55;;;;;;;;;;5030099;28;20047;-85
2024/01/03 12:27:04;;;;;;;7.43;1.52;;;;;;;;;;5030185;28;20428;-86
2024/01/03 12:29:30;;;;;;;4.57;1.40;;;;;;;;;;5047658;28;20028;-84
2024/01/03 12:31:56;;;;;;;10.32;2.03;;;;;;;;;;5049572;28;20029;-84
2024/01/03 12:34:22;;;;;;;7.28;2.15;;;;;;;;;;5052061;28;20396;-85
2024/01/03 12:36:49;;;;;;;7.85;1.42;;;;;;;;;;5052689;28;20112;-85
2024/01/03 12:39:15;;;;;;;4.80;1.30;;;;;;;;;;5052204;28;20104;-84
2024/01/03 12:41:40;;;;;;;6.18;1.35;;;;;;;;;;5051952;28;20104;-84
2024/01/03 12:44:06;;;;;;;3.45;1.15;;;;;;;;;;5051940;28;20100;-83
2024/01/03 12:46:32;;;;;;;2.10;0.90;;;;;;;;;;5052130;28;20032;-85
2024/01/03 12:48:59;;;;;;;3.90;1.38;;;;;;;;;;5052173;28;20477;-85
2024/01/03 12:51:25;;;;;;;6.10;1.42;;;;;;;;;;5052060;28;20074;-85
2024/01/03 12:53:51;;;;;;;7.22;1.90;;;;;;;;;;5052806;28;20033;-85
2024/01/03 12:56:18;;;;;;;4.80;1.40;;;;;;;;;;5051945;28;20067;-85
2024/01/03 12:58:44;;;;;;;5.28;1.58;;;;;;;;;;5051964;28;20369;-85
2024/01/03 13:01:10;;;;;;;5.07;1.60;;;;;;;;;;5052007;28;20027;-85
2024/01/03 13:03:36;;;;;;;6.88;1.48;;;;;;;;;;5051832;28;20024;-85
2024/01/03 13:06:02;;;;;;;5.72;1.30;;;;;;;;;;5051946;28;20025;-85
2024/01/03 13:08:28;;;;;;;9.40;1.40;;;;;;;;;;5051474;28;20029;-85
2024/01/03 13:10:54;;;;;;;7.47;1.52;;;;;;;;;;5034117;28;20087;-85
2024/01/03 13:13:20;;;;;;;3.63;1.15;;;;;;;;;;5052316;28;20037;-85
2024/01/03 13:15:49;;;;;;;6.05;1.88;;;;;;;;;;5051669;28;20393;-84
2024/01/03 13:18:15;;;;;;;5.78;1.40;;;;;;;;;;5033927;28;20051;-85
2024/01/03 13:20:41;;;;;;;5.00;1.67;;;;;;;;;;5051556;28;20028;-85
2024/01/03 13:23:07;;;;;;;7.80;1.60;;;;;;;;;;5051206;28;20033;-84
2024/01/03 13:25:33;;;;;;;7.30;2.35;;;;;;;;;;5051451;28;20427;-85
2024/01/03 13:27:59;;;;;;;10.30;1.95;;;;;;;;;;5051383;28;20028;-85
2024/01/03 13:30:25;;;;;;;6.88;1.52;;;;;;;;;;5051916;28;20028;-85
2024/01/03 13:32:51;;;;;;;9.00;2.10;;;;;;;;;;5052049;28;20373;-85
2024/01/03 13:35:18;;;;;;;10.93;1.75;;;;;;;;;;5051362;28;20481;-84
2024/01/03 13:37:44;;;;;;;7.78;2.13;;;;;;;;;;5051244;28;20028;-85
2024/01/03 13:40:10;;;;;;;9.75;2.60;;;;;;;;;;5051242;28;20029;-85
2024/01/03 13:42:36;;;;;;;9.63;2.15;;;;;;;;;;5033081;28;20025;-85
2024/01/03 13:45:03;;;;;;;11.82;1.98;;;;;;;;;;5050455;28;20021;-85
2024/01/03 13:47:28;;;;;;;13.52;2.72;;;;;;;;;;5051095;28;20053;-85
2024/01/03 13:49:55;;;;;;;11.88;2.00;;;;;;;;;;5051902;28;20064;-85
2024/01/03 13:52:21;;;;;;;10.73;2.10;;;;;;;;;;5051677;28;20057;-84
2024/01/03 13:54:47;;;;;;;12.48;1.73;;;;;;;;;;5050930;28;20468;-85
2024/01/03 13:57:15;;;;;;;17.17;2.25;;;;;;;;;;5050787;28;20017;-85
2024/01/03 13:59:41;;;;;;;10.47;2.60;;;;;;;;;;5050888;28;20477;-85
2024/01/03 14:02:07;;;;;;;12.95;2.33;;;;;;;;;;5050909;28;20025;-85
2024/01/03 14:04:32;;;;;;;17.25;2.30;;;;;;;;;;5050501;28;20025;-85
2024/01/03 14:06:58;;;;;;;14.15;2.83;;;;;;;;;;5050736;28;20036;-85
2024/01/03 14:09:25;;;;;;;13.38;2.28;;;;;;;;;;5051429;28;20404;-85
2024/01/03 14:11:51;;;;;;;11.77;2.10;;;;;;;;;;5050640;28;20029;-86
2024/01/03 14:14:17;;;;;;;10.82;2.25;;;;;;;;;;5050587;28;20278;-85
2024/01/03 14:16:46;;;;;;;11.30;2.17;;;;;;;;;;5050177;28;20028;-86
2024/01/03 14:19:12;;;;;;;14.77;2.15;;;;;;;;;;5032632;28;20043;-84
2024/01/03 14:21:43;;;;;;;18.15;3.10;;;;;;;;;;5050244;28;20028;-85
2024/01/03 14:24:09;;;;;;;15.27;3.00;;;;;;;;;;5032058;28;20439;-86